Avalon Express — WDD7919 — position and weather

sailwx.info

Track history (hours):
 
Tides and Currents Weather Stations Pressure Air Temp Water Temp Dewpoint Dewpoint Depression Visibility Wind Speed Wind Dir Waves Ship Positions

Avalon Express

Owner: RGWT INC, San Pedro, CA. More information available from US FCC via Universal Licensing System and Coast Guard Vessel Documentation Center.

Last reported at 2017-Nov-27 01:21 UTC. Time now 2017-Dec-11 19:11 UTC.
Position N 33°40' W 118°17'.
Warning: this ship's position is 14 days out of date.

Type: High speed craft. MMSI: 367192940.

Date/timePositionNaut miles runAvg speedWind from/ knotsBaromVisibWave heightAir tempDewpointWater temp
2017-Nov-27 01:21N 33°40' W 118°17'1026.0
2017-Nov-27 00:59N 33°33' W 118°24'8 7.7
2017-Nov-27 00:00N 33°27' W 118°29'10 3.0
2017-Nov-26 20:40N 33°22' W 118°19'23 1.4
2017-Nov-26 03:52N 33°45' W 118°16'0 0.0
2017-Nov-26 03:28N 33°45' W 118°16'0 0.0
2017-Nov-26 03:00N 33°45' W 118°16'2 3.2
2017-Nov-26 02:30N 33°43' W 118°16'1223.6
2017-Nov-26 01:59N 33°31' W 118°18'1122.4
2017-Nov-26 01:30N 33°21' W 118°19'0 0.0
2017-Nov-26 01:00N 33°21' W 118°19'3 5.5
2017-Nov-26 00:30N 33°23' W 118°19'1326.3
2017-Nov-26 00:00N 33°36' W 118°16'910.9
2017-Nov-25 23:12N 33°45' W 118°16'1 2.4
2017-Nov-25 22:53N 33°44' W 118°17'1 1.9
2017-Nov-25 22:30N 33°43' W 118°16'1 3.0
2017-Nov-25 22:00N 33°45' W 118°16'611.3
2017-Nov-25 21:30N 33°39' W 118°16'1121.1
2017-Nov-25 21:00N 33°29' W 118°18'810.9
2017-Nov-25 20:15N 33°21' W 118°19'817.5
2017-Nov-25 19:47N 33°29' W 118°18'518.8
2017-Nov-25 19:30N 33°34' W 118°17'9 0.5
2017-Nov-25 02:29N 33°43' W 118°16'1323.3
2017-Nov-25 01:56N 33°31' W 118°17'1023.6
2017-Nov-25 01:30N 33°21' W 118°19'1 0.9
2017-Nov-25 00:50N 33°21' W 118°20'0 0.2
2017-Nov-25 00:30N 33°21' W 118°20'0 0.0
2017-Nov-24 22:47N 33°21' W 118°20'0 0.0
2017-Nov-24 22:26N 33°21' W 118°20'0 0.0
2017-Nov-24 21:56N 33°21' W 118°20'0 0.0
2017-Nov-24 21:30N 33°21' W 118°20'0 0.1
2017-Nov-24 21:00N 33°21' W 118°20'0 0.0
2017-Nov-24 20:29N 33°21' W 118°20'1 1.1
2017-Nov-24 19:56N 33°21' W 118°19'3 0.1
2017-Nov-23 00:57N 33°23' W 118°21'8 8.2
2017-Nov-22 23:59N 33°29' W 118°27'  
2017-Nov-19 23:57N 33°27' W 118°29'17 6.3
2017-Nov-19 21:19N 33°39' W 118°15'826.4
2017-Nov-19 21:00N 33°31' W 118°17'6 3.4
2017-Nov-19 19:17N 33°36' W 118°16'9 2.6
2017-Nov-19 15:56N 33°45' W 118°16'0 0.0
2017-Nov-18 20:39N 33°45' W 118°16'714.3
2017-Nov-18 20:10N 33°38' W 118°18'12 7.0
2017-Nov-18 18:28N 33°29' W 118°27'  
Track history (hours):
 
Tides and Currents Weather Stations Pressure Air Temp Water Temp Dewpoint Dewpoint Depression Visibility Wind Speed Wind Dir Waves Ship Positions

Avalon Express

Owner: RGWT INC, San Pedro, CA. More information available from US FCC via Universal Licensing System and Coast Guard Vessel Documentation Center.

Last reported at 2017-Nov-27 01:21 UTC. Time now 2017-Dec-11 19:11 UTC.
Position N 33°40' W 118°17'.
Warning: this ship's position is 14 days out of date.

Type: High speed craft. MMSI: 367192940.

Date/timePositionNaut miles runAvg speedWind from/ knotsBaromVisibWave heightAir tempDewpointWater temp
2017-Nov-27 01:21N 33°40' W 118°17'1026.0
2017-Nov-27 00:59N 33°33' W 118°24'8 7.7
2017-Nov-27 00:00N 33°27' W 118°29'10 3.0
2017-Nov-26 20:40N 33°22' W 118°19'23 1.4
2017-Nov-26 03:52N 33°45' W 118°16'0 0.0
2017-Nov-26 03:28N 33°45' W 118°16'0 0.0
2017-Nov-26 03:00N 33°45' W 118°16'2 3.2
2017-Nov-26 02:30N 33°43' W 118°16'1223.6
2017-Nov-26 01:59N 33°31' W 118°18'1122.4
2017-Nov-26 01:30N 33°21' W 118°19'0 0.0
2017-Nov-26 01:00N 33°21' W 118°19'3 5.5
2017-Nov-26 00:30N 33°23' W 118°19'1326.3
2017-Nov-26 00:00N 33°36' W 118°16'910.9
2017-Nov-25 23:12N 33°45' W 118°16'1 2.4
2017-Nov-25 22:53N 33°44' W 118°17'1 1.9
2017-Nov-25 22:30N 33°43' W 118°16'1 3.0
2017-Nov-25 22:00N 33°45' W 118°16'611.3
2017-Nov-25 21:30N 33°39' W 118°16'1121.1
2017-Nov-25 21:00N 33°29' W 118°18'810.9
2017-Nov-25 20:15N 33°21' W 118°19'817.5
2017-Nov-25 19:47N 33°29' W 118°18'518.8
2017-Nov-25 19:30N 33°34' W 118°17'9 0.5
2017-Nov-25 02:29N 33°43' W 118°16'1323.3
2017-Nov-25 01:56N 33°31' W 118°17'1023.6
2017-Nov-25 01:30N 33°21' W 118°19'1 0.9
2017-Nov-25 00:50N 33°21' W 118°20'0 0.2
2017-Nov-25 00:30N 33°21' W 118°20'0 0.0
2017-Nov-24 22:47N 33°21' W 118°20'0 0.0
2017-Nov-24 22:26N 33°21' W 118°20'0 0.0
2017-Nov-24 21:56N 33°21' W 118°20'0 0.0
2017-Nov-24 21:30N 33°21' W 118°20'0 0.1
2017-Nov-24 21:00N 33°21' W 118°20'0 0.0
2017-Nov-24 20:29N 33°21' W 118°20'1 1.1
2017-Nov-24 19:56N 33°21' W 118°19'3 0.1
2017-Nov-23 00:57N 33°23' W 118°21'8 8.2
2017-Nov-22 23:59N 33°29' W 118°27'  
2017-Nov-19 23:57N 33°27' W 118°29'17 6.3
2017-Nov-19 21:19N 33°39' W 118°15'826.4
2017-Nov-19 21:00N 33°31' W 118°17'6 3.4
2017-Nov-19 19:17N 33°36' W 118°16'9 2.6
2017-Nov-19 15:56N 33°45' W 118°16'0 0.0
2017-Nov-18 20:39N 33°45' W 118°16'714.3
2017-Nov-18 20:10N 33°38' W 118°18'12 7.0
2017-Nov-18 18:28N 33°29' W 118°27'  

Dump ship's entire track history